Time;durP1;ratioP1;P1;durP2;ratioP2;P2;SDS_P1;SDS_P2;PMS_P1;PMS_P2;Temp;Humidity;BMP_temperature;BMP_pressure;BME280_temperature;BME280_humidity;BME280_pressure;Samples;Min_cycle;Max_cycle;Signal;HPM_P1;HPM_P2
2022/01/08 00:01:21;;;;;;;4.57;3.20;;;;;;;;;;5003348;28;20487;-56
2022/01/08 00:03:48;;;;;;;7.77;3.80;;;;;;;;;;5007277;28;20243;-56
2022/01/08 00:06:14;;;;;;;6.80;3.13;;;;;;;;;;5004804;28;20283;-57
2022/01/08 00:08:40;;;;;;;5.70;3.00;;;;;;;;;;5001141;28;20326;-57
2022/01/08 00:11:07;;;;;;;5.60;3.03;;;;;;;;;;4999853;28;20244;-56
2022/01/08 00:13:34;;;;;;;3.93;3.23;;;;;;;;;;4999876;28;20339;-56
2022/01/08 00:16:00;;;;;;;5.00;3.03;;;;;;;;;;4999936;28;20252;-56
2022/01/08 00:18:27;;;;;;;3.67;2.80;;;;;;;;;;5006348;28;20607;-57
2022/01/08 00:20:54;;;;;;;10.23;2.93;;;;;;;;;;4969101;28;1061113;-56
2022/01/08 00:23:20;;;;;;;8.70;3.50;;;;;;;;;;5006852;28;20267;-56
2022/01/08 00:25:46;;;;;;;3.73;2.63;;;;;;;;;;5007500;28;20246;-57
2022/01/08 00:28:12;;;;;;;7.77;2.97;;;;;;;;;;5011545;28;20228;-57
2022/01/08 00:30:38;;;;;;;5.83;3.30;;;;;;;;;;5019062;28;20239;-57
2022/01/08 00:33:04;;;;;;;6.73;2.80;;;;;;;;;;5003561;28;20231;-57
2022/01/08 00:35:31;;;;;;;4.90;2.93;;;;;;;;;;5009515;28;21128;-57
2022/01/08 00:37:57;;;;;;;6.93;3.13;;;;;;;;;;5006915;28;20233;-56
2022/01/08 00:40:23;;;;;;;4.03;2.50;;;;;;;;;;5014109;28;20224;-57
2022/01/08 00:42:49;;;;;;;5.83;2.90;;;;;;;;;;5016344;28;20717;-57
2022/01/08 00:45:15;;;;;;;5.80;3.33;;;;;;;;;;5014661;28;20301;-57
2022/01/08 00:47:41;;;;;;;8.83;2.87;;;;;;;;;;4984997;28;21151;-57
2022/01/08 00:50:07;;;;;;;4.07;2.60;;;;;;;;;;4977385;28;21736;-57
2022/01/08 00:52:34;;;;;;;4.53;2.30;;;;;;;;;;4980482;28;20311;-58
2022/01/08 00:55:00;;;;;;;7.97;2.83;;;;;;;;;;4987812;28;20787;-57
2022/01/08 00:57:26;;;;;;;6.17;3.23;;;;;;;;;;4990572;28;20264;-57
2022/01/08 00:59:51;;;;;;;4.73;2.70;;;;;;;;;;4992673;28;20228;-56
2022/01/08 01:02:17;;;;;;;5.30;3.00;;;;;;;;;;4998118;28;20795;-56
2022/01/08 01:04:43;;;;;;;5.60;2.67;;;;;;;;;;4991755;28;20240;-57
2022/01/08 01:07:09;;;;;;;3.00;2.47;;;;;;;;;;4992143;28;20259;-57
2022/01/08 01:09:35;;;;;;;5.23;2.63;;;;;;;;;;4990080;28;20228;-57
2022/01/08 01:12:01;;;;;;;6.17;2.93;;;;;;;;;;4996832;28;20298;-56
2022/01/08 01:14:27;;;;;;;7.20;3.27;;;;;;;;;;5002695;28;20251;-57
2022/01/08 01:16:53;;;;;;;5.20;2.80;;;;;;;;;;4993347;28;20248;-56
2022/01/08 01:19:21;;;;;;;3.73;2.60;;;;;;;;;;4992986;28;20728;-56
2022/01/08 01:21:47;;;;;;;5.73;2.90;;;;;;;;;;4993158;28;20240;-57
2022/01/08 01:24:18;;;;;;;3.63;2.80;;;;;;;;;;4992721;28;20326;-56
2022/01/08 01:27:17;;;;;;;5.80;3.03;;;;;;;;;;5000656;28;20870;-57
2022/01/08 01:48:17;;;;;;;6.70;2.80;;;;;;;;;;5004510;28;20243;-57
2022/01/08 01:50:43;;;;;;;5.13;3.30;;;;;;;;;;4999993;28;20323;-57
2022/01/08 01:53:09;;;;;;;4.77;2.83;;;;;;;;;;4962119;28;20484;-56
2022/01/08 01:55:35;;;;;;;5.60;3.23;;;;;;;;;;4983056;28;22221;-57
2022/01/08 01:58:05;;;;;;;7.90;2.83;;;;;;;;;;4984194;28;20863;-56
2022/01/08 02:00:31;;;;;;;4.67;3.30;;;;;;;;;;4968880;28;20229;-57
2022/01/08 02:02:57;;;;;;;7.73;3.50;;;;;;;;;;4969107;28;20237;-57
2022/01/08 02:05:23;;;;;;;6.63;3.20;;;;;;;;;;4978118;28;20681;-57
2022/01/08 02:07:49;;;;;;;9.93;3.20;;;;;;;;;;4981417;28;20239;-56
2022/01/08 02:10:15;;;;;;;7.63;3.83;;;;;;;;;;4966101;28;20747;-56
2022/01/08 02:12:41;;;;;;;9.17;4.23;;;;;;;;;;4984846;28;22323;-57
2022/01/08 02:15:07;;;;;;;10.97;4.00;;;;;;;;;;4986171;28;20992;-57
2022/01/08 02:17:33;;;;;;;8.90;3.80;;;;;;;;;;5007673;28;21047;-56
2022/01/08 02:19:59;;;;;;;8.67;3.70;;;;;;;;;;5017046;28;20231;-57
2022/01/08 02:22:25;;;;;;;6.27;4.10;;;;;;;;;;5015860;28;20223;-57
2022/01/08 02:24:51;;;;;;;7.80;4.70;;;;;;;;;;4987770;28;20232;-57
2022/01/08 02:27:17;;;;;;;7.40;4.87;;;;;;;;;;4990488;28;20286;-56
2022/01/08 02:29:43;;;;;;;9.40;5.33;;;;;;;;;;4992350;28;20306;-56
2022/01/08 02:32:11;;;;;;;10.13;4.97;;;;;;;;;;4999008;28;21201;-57
2022/01/08 02:34:38;;;;;;;7.30;4.40;;;;;;;;;;4998237;28;20626;-56
2022/01/08 02:37:04;;;;;;;6.73;4.40;;;;;;;;;;5002643;28;20225;-56
2022/01/08 02:39:34;;;;;;;10.77;4.83;;;;;;;;;;4985753;28;20802;-56
2022/01/08 02:42:00;;;;;;;9.10;5.30;;;;;;;;;;5006467;28;20232;-57
2022/01/08 02:44:26;;;;;;;9.63;5.03;;;;;;;;;;5005151;28;20245;-56
2022/01/08 02:46:52;;;;;;;10.13;4.83;;;;;;;;;;5005225;28;20606;-57
2022/01/08 02:49:21;;;;;;;12.30;5.20;;;;;;;;;;4987748;28;20232;-56
2022/01/08 02:51:47;;;;;;;11.90;6.00;;;;;;;;;;4984576;28;20252;-57
2022/01/08 02:54:13;;;;;;;11.13;5.27;;;;;;;;;;4997262;28;20235;-56
2022/01/08 02:56:40;;;;;;;8.43;4.80;;;;;;;;;;4983854;28;20628;-56
2022/01/08 02:59:06;;;;;;;10.57;5.67;;;;;;;;;;4995581;28;20257;-56
2022/01/08 03:01:31;;;;;;;8.80;5.77;;;;;;;;;;4986491;28;22605;-57
2022/01/08 03:03:57;;;;;;;9.27;5.33;;;;;;;;;;4995993;28;20290;-57
2022/01/08 03:06:23;;;;;;;9.53;5.80;;;;;;;;;;4987594;28;20239;-56
2022/01/08 03:08:50;;;;;;;10.17;6.23;;;;;;;;;;4974314;28;20341;-57
2022/01/08 03:11:16;;;;;;;11.80;5.67;;;;;;;;;;4988654;28;20405;-56
2022/01/08 03:13:42;;;;;;;9.90;6.13;;;;;;;;;;4985274;28;20247;-56
2022/01/08 03:16:07;;;;;;;8.07;6.00;;;;;;;;;;4985259;28;20246;-57
2022/01/08 03:18:35;;;;;;;10.87;5.97;;;;;;;;;;4991737;28;20251;-56
2022/01/08 03:21:11;;;;;;;12.00;6.30;;;;;;;;;;4998411;28;21005;-57
2022/01/08 03:23:43;;;;;;;12.93;6.40;;;;;;;;;;4981533;28;20760;-57
2022/01/08 03:26:09;;;;;;;8.37;6.07;;;;;;;;;;4986992;28;20793;-56
2022/01/08 03:28:35;;;;;;;11.33;6.40;;;;;;;;;;4982027;28;20270;-56
2022/01/08 03:31:01;;;;;;;14.17;6.17;;;;;;;;;;4992128;28;20259;-56
2022/01/08 03:33:27;;;;;;;11.50;6.73;;;;;;;;;;4983648;28;20791;-56
2022/01/08 03:35:53;;;;;;;10.07;6.00;;;;;;;;;;4996747;28;20486;-56
2022/01/08 03:38:19;;;;;;;11.97;6.20;;;;;;;;;;5019606;28;20236;-56
2022/01/08 03:40:45;;;;;;;11.10;6.13;;;;;;;;;;4986034;28;20947;-57
2022/01/08 03:43:11;;;;;;;10.40;6.03;;;;;;;;;;4982250;28;20240;-56
2022/01/08 03:45:37;;;;;;;11.00;6.40;;;;;;;;;;5006518;28;20240;-57
2022/01/08 03:50:32;;;;;;;9.13;5.20;;;;;;;;;;5000301;28;20236;-56
2022/01/08 03:52:58;;;;;;;10.83;5.77;;;;;;;;;;4996382;28;20227;-56
2022/01/08 03:55:24;;;;;;;10.57;5.83;;;;;;;;;;5003237;28;20235;-56
2022/01/08 03:57:49;;;;;;;12.70;6.10;;;;;;;;;;5005254;28;20242;-57
2022/01/08 04:00:15;;;;;;;11.93;6.10;;;;;;;;;;5003640;28;21018;-56
2022/01/08 04:02:41;;;;;;;9.43;5.83;;;;;;;;;;5001891;28;20232;-57
2022/01/08 04:05:07;;;;;;;7.70;6.10;;;;;;;;;;5007249;28;20300;-56
2022/01/08 04:07:33;;;;;;;9.70;6.53;;;;;;;;;;5015435;28;20235;-56
2022/01/08 04:09:59;;;;;;;12.30;6.27;;;;;;;;;;5008063;28;20292;-56
2022/01/08 04:12:38;;;;;;;10.67;6.50;;;;;;;;;;5012574;28;20746;-56
2022/01/08 04:15:09;;;;;;;11.70;6.93;;;;;;;;;;5011425;28;20242;-56
2022/01/08 04:17:35;;;;;;;10.33;6.93;;;;;;;;;;5009474;28;20228;-57
2022/01/08 04:20:01;;;;;;;11.73;7.13;;;;;;;;;;5014712;28;20698;-56
2022/01/08 04:22:28;;;;;;;8.30;6.83;;;;;;;;;;5005978;28;20225;-56
2022/01/08 04:24:56;;;;;;;10.37;6.97;;;;;;;;;;4997968;28;20240;-56
2022/01/08 04:27:22;;;;;;;10.93;7.17;;;;;;;;;;5002037;28;20458;-57
2022/01/08 04:29:47;;;;;;;11.67;7.10;;;;;;;;;;4997170;28;20267;-56
2022/01/08 04:32:14;;;;;;;13.67;8.23;;;;;;;;;;5008304;28;20607;-57
2022/01/08 04:34:40;;;;;;;13.83;7.27;;;;;;;;;;5001284;28;20374;-56
2022/01/08 04:37:06;;;;;;;11.13;7.57;;;;;;;;;;5001718;28;20228;-56
2022/01/08 04:39:32;;;;;;;10.93;7.33;;;;;;;;;;4989615;28;20314;-56
2022/01/08 04:41:58;;;;;;;13.97;8.57;;;;;;;;;;5000260;28;20727;-57
2022/01/08 04:44:24;;;;;;;14.60;7.97;;;;;;;;;;4992801;28;20244;-56
2022/01/08 04:46:50;;;;;;;9.30;7.63;;;;;;;;;;4997603;28;20259;-56
2022/01/08 04:49:16;;;;;;;11.57;7.63;;;;;;;;;;5000073;28;20235;-56
2022/01/08 04:51:42;;;;;;;12.23;7.70;;;;;;;;;;4994171;28;20255;-56
2022/01/08 04:54:08;;;;;;;12.07;8.10;;;;;;;;;;5002485;28;20737;-56
2022/01/08 04:56:34;;;;;;;16.23;8.90;;;;;;;;;;5007134;28;20599;-56
2022/01/08 04:59:00;;;;;;;15.20;7.93;;;;;;;;;;5009810;28;20232;-56
2022/01/08 05:01:26;;;;;;;11.87;8.13;;;;;;;;;;5005227;28;20256;-57
2022/01/08 05:03:52;;;;;;;10.87;8.40;;;;;;;;;;5006158;28;20579;-56
2022/01/08 05:06:18;;;;;;;15.47;9.00;;;;;;;;;;5009252;28;20236;-57
2022/01/08 05:08:44;;;;;;;12.17;8.47;;;;;;;;;;5001664;28;20788;-56
2022/01/08 05:11:10;;;;;;;12.83;8.93;;;;;;;;;;5005062;28;20924;-57
2022/01/08 05:13:37;;;;;;;13.83;8.80;;;;;;;;;;5009868;28;20240;-57
2022/01/08 05:16:04;;;;;;;17.33;9.53;;;;;;;;;;5007375;28;20669;-57
2022/01/08 05:18:31;;;;;;;16.93;8.90;;;;;;;;;;5003568;28;20610;-56
2022/01/08 05:21:09;;;;;;;13.33;9.43;;;;;;;;;;4999625;28;20608;-57
2022/01/08 05:23:35;;;;;;;13.33;8.63;;;;;;;;;;4998370;28;20233;-57
2022/01/08 05:26:01;;;;;;;14.87;9.27;;;;;;;;;;4997739;28;20247;-56
2022/01/08 05:28:27;;;;;;;13.07;9.33;;;;;;;;;;5014808;28;20228;-56
2022/01/08 05:30:53;;;;;;;13.93;9.13;;;;;;;;;;5012104;28;20239;-57
2022/01/08 05:33:19;;;;;;;12.60;8.53;;;;;;;;;;5013308;28;20649;-56
2022/01/08 05:35:45;;;;;;;14.23;9.30;;;;;;;;;;5006100;28;20285;-57
2022/01/08 05:38:11;;;;;;;15.37;9.23;;;;;;;;;;5019777;28;20570;-57
2022/01/08 05:40:37;;;;;;;16.63;9.60;;;;;;;;;;5007710;28;20243;-57
2022/01/08 05:43:03;;;;;;;12.40;9.07;;;;;;;;;;5000791;28;20969;-56
2022/01/08 05:45:29;;;;;;;17.53;10.20;;;;;;;;;;5004113;28;20379;-57
2022/01/08 05:47:55;;;;;;;16.13;9.23;;;;;;;;;;4996143;28;20262;-56
2022/01/08 05:50:21;;;;;;;16.20;10.00;;;;;;;;;;4993415;28;20952;-56
2022/01/08 05:52:48;;;;;;;14.57;10.20;;;;;;;;;;4990546;28;20239;-57
2022/01/08 05:55:14;;;;;;;15.33;10.27;;;;;;;;;;5001137;28;20600;-56
2022/01/08 05:57:40;;;;;;;17.77;9.97;;;;;;;;;;4999721;28;20228;-57
2022/01/08 06:00:07;;;;;;;17.77;10.50;;;;;;;;;;5003860;28;20267;-56
2022/01/08 06:02:33;;;;;;;18.47;10.23;;;;;;;;;;5007876;28;20680;-56
2022/01/08 06:04:59;;;;;;;16.43;10.87;;;;;;;;;;4998649;28;20240;-57
2022/01/08 06:07:25;;;;;;;14.23;9.80;;;;;;;;;;4997589;28;20271;-57
2022/01/08 06:09:51;;;;;;;16.60;10.77;;;;;;;;;;5000436;28;20240;-57
2022/01/08 06:12:17;;;;;;;19.27;10.37;;;;;;;;;;4999965;28;20672;-56
2022/01/08 06:14:43;;;;;;;14.60;10.50;;;;;;;;;;4974412;28;20237;-57
2022/01/08 06:17:09;;;;;;;18.13;10.93;;;;;;;;;;4997372;28;20779;-57
2022/01/08 06:19:35;;;;;;;14.23;9.70;;;;;;;;;;4990687;28;20331;-57
2022/01/08 06:22:01;;;;;;;17.67;10.87;;;;;;;;;;4988842;28;20250;-56
2022/01/08 06:24:27;;;;;;;17.87;10.07;;;;;;;;;;4983972;28;20707;-56
2022/01/08 06:26:53;;;;;;;15.80;10.90;;;;;;;;;;4994692;28;20248;-56
2022/01/08 06:29:19;;;;;;;16.67;11.10;;;;;;;;;;5002070;28;20236;-57
2022/01/08 06:31:45;;;;;;;18.00;11.10;;;;;;;;;;5000906;28;20809;-57
2022/01/08 06:34:11;;;;;;;19.67;11.47;;;;;;;;;;4994658;28;20251;-57
2022/01/08 06:36:37;;;;;;;16.20;11.40;;;;;;;;;;5003204;28;20225;-57
2022/01/08 06:39:03;;;;;;;19.47;11.10;;;;;;;;;;5006191;28;20298;-57
2022/01/08 06:41:29;;;;;;;17.37;11.73;;;;;;;;;;5011400;28;21197;-56
2022/01/08 06:43:56;;;;;;;18.77;11.03;;;;;;;;;;4981802;28;20628;-57
2022/01/08 06:46:22;;;;;;;16.43;11.30;;;;;;;;;;5002527;28;20243;-56
2022/01/08 06:48:48;;;;;;;18.67;11.27;;;;;;;;;;4993037;28;20252;-57
2022/01/08 06:51:14;;;;;;;19.10;11.20;;;;;;;;;;4999217;28;20258;-57
2022/01/08 06:53:40;;;;;;;17.97;10.93;;;;;;;;;;4986513;28;20455;-56
2022/01/08 06:56:06;;;;;;;17.37;11.90;;;;;;;;;;4995251;28;20229;-56
2022/01/08 06:58:32;;;;;;;16.13;10.80;;;;;;;;;;5001620;28;20293;-56
2022/01/08 07:00:58;;;;;;;19.10;12.37;;;;;;;;;;4990508;28;20725;-56
2022/01/08 07:03:24;;;;;;;18.63;11.57;;;;;;;;;;4997162;28;20642;-57
2022/01/08 07:05:50;;;;;;;17.10;11.70;;;;;;;;;;4985911;28;20237;-57
2022/01/08 07:08:16;;;;;;;20.10;11.40;;;;;;;;;;4992714;28;20292;-57
2022/01/08 07:10:42;;;;;;;21.03;11.93;;;;;;;;;;4995003;28;20454;-57
2022/01/08 07:13:08;;;;;;;22.00;12.07;;;;;;;;;;5007456;28;20324;-57
2022/01/08 07:15:34;;;;;;;16.27;11.80;;;;;;;;;;5002782;28;20290;-57
2022/01/08 07:18:00;;;;;;;18.23;11.53;;;;;;;;;;5009319;28;20232;-57
2022/01/08 07:20:26;;;;;;;20.60;12.13;;;;;;;;;;5002810;28;20330;-57
2022/01/08 07:22:52;;;;;;;18.47;11.80;;;;;;;;;;5006549;28;20339;-57
2022/01/08 07:25:18;;;;;;;17.60;12.00;;;;;;;;;;5000944;28;20240;-57
2022/01/08 07:27:44;;;;;;;19.33;12.03;;;;;;;;;;5011472;28;20247;-57
2022/01/08 07:30:10;;;;;;;18.30;12.10;;;;;;;;;;5007921;28;20639;-57
2022/01/08 07:32:46;;;;;;;22.90;12.03;;;;;;;;;;5009949;28;20321;-57
2022/01/08 07:35:14;;;;;;;16.80;12.57;;;;;;;;;;5009048;28;20461;-56
2022/01/08 07:37:40;;;;;;;19.60;11.93;;;;;;;;;;5007009;28;20229;-57
2022/01/08 07:40:06;;;;;;;18.07;11.87;;;;;;;;;;4994253;28;20292;-57
2022/01/08 07:42:32;;;;;;;19.57;12.73;;;;;;;;;;4988249;28;20239;-56
2022/01/08 07:44:58;;;;;;;16.87;12.10;;;;;;;;;;4995851;28;20237;-57
2022/01/08 07:47:24;;;;;;;18.83;12.07;;;;;;;;;;5008027;28;20356;-57
2022/01/08 07:49:50;;;;;;;18.57;12.77;;;;;;;;;;4991906;28;20641;-57
2022/01/08 07:52:16;;;;;;;21.67;13.00;;;;;;;;;;4999951;28;20776;-57
2022/01/08 07:54:42;;;;;;;20.07;12.67;;;;;;;;;;4993075;28;20225;-56
2022/01/08 07:57:08;;;;;;;18.23;12.60;;;;;;;;;;4991960;28;20944;-57
2022/01/08 07:59:34;;;;;;;22.90;12.77;;;;;;;;;;5006753;28;20236;-57
2022/01/08 08:02:00;;;;;;;20.60;11.60;;;;;;;;;;4999885;28;20991;-57
2022/01/08 08:04:26;;;;;;;20.07;12.20;;;;;;;;;;4999255;28;20251;-57
2022/01/08 08:06:52;;;;;;;18.33;12.10;;;;;;;;;;4992214;28;20260;-56
2022/01/08 08:09:18;;;;;;;22.33;11.67;;;;;;;;;;4991971;28;20433;-56
2022/01/08 08:11:44;;;;;;;19.77;12.13;;;;;;;;;;4994683;28;20236;-57
2022/01/08 08:14:10;;;;;;;19.80;12.00;;;;;;;;;;5003216;28;20525;-57
2022/01/08 08:16:36;;;;;;;21.33;12.67;;;;;;;;;;4999241;28;20239;-57
2022/01/08 08:19:02;;;;;;;20.67;13.07;;;;;;;;;;4992708;28;20236;-56
2022/01/08 08:21:28;;;;;;;20.97;12.33;;;;;;;;;;5001037;28;20339;-56
2022/01/08 08:23:54;;;;;;;20.63;13.03;;;;;;;;;;4988617;28;20880;-56
2022/01/08 08:26:20;;;;;;;18.97;12.70;;;;;;;;;;4993157;28;20228;-56
2022/01/08 08:28:46;;;;;;;22.60;12.10;;;;;;;;;;4999910;28;20608;-56
2022/01/08 08:31:12;;;;;;;18.27;11.83;;;;;;;;;;4999545;28;20240;-56
2022/01/08 08:33:38;;;;;;;18.53;11.33;;;;;;;;;;4997631;28;21527;-58
2022/01/08 08:36:04;;;;;;;18.83;12.47;;;;;;;;;;4995229;28;20232;-57
2022/01/08 08:38:30;;;;;;;25.27;13.60;;;;;;;;;;4983974;28;20239;-57
2022/01/08 08:40:56;;;;;;;25.97;14.40;;;;;;;;;;5003648;28;20236;-57
2022/01/08 08:43:23;;;;;;;25.27;14.47;;;;;;;;;;5003887;28;20236;-57
2022/01/08 08:45:49;;;;;;;19.73;13.07;;;;;;;;;;4999362;28;20778;-57
2022/01/08 08:48:15;;;;;;;23.00;12.80;;;;;;;;;;5016190;28;20231;-57
2022/01/08 08:50:41;;;;;;;24.00;12.70;;;;;;;;;;5017956;28;20224;-57
2022/01/08 08:53:07;;;;;;;21.10;12.63;;;;;;;;;;5013931;28;20243;-57
2022/01/08 08:55:34;;;;;;;21.07;12.80;;;;;;;;;;5013760;28;20639;-57
2022/01/08 08:57:59;;;;;;;20.57;12.87;;;;;;;;;;5010937;28;20245;-57
2022/01/08 09:00:26;;;;;;;19.10;12.80;;;;;;;;;;5015937;28;20296;-57
2022/01/08 09:02:52;;;;;;;18.63;11.97;;;;;;;;;;5007148;28;20332;-57
2022/01/08 09:05:18;;;;;;;18.23;12.37;;;;;;;;;;5019976;28;20243;-57
2022/01/08 09:07:44;;;;;;;20.97;13.10;;;;;;;;;;5010045;28;20236;-57
2022/01/08 09:10:10;;;;;;;22.90;12.63;;;;;;;;;;5022247;28;20246;-57
2022/01/08 09:12:37;;;;;;;18.30;12.53;;;;;;;;;;5012737;28;20235;-57
2022/01/08 09:15:04;;;;;;;19.80;11.73;;;;;;;;;;5017028;28;20256;-57
2022/01/08 09:17:30;;;;;;;23.10;12.03;;;;;;;;;;5016428;28;20292;-57
2022/01/08 09:19:56;;;;;;;16.77;11.30;;;;;;;;;;5016258;28;20240;-57
2022/01/08 09:22:22;;;;;;;20.47;11.43;;;;;;;;;;5012344;28;20679;-57
2022/01/08 09:24:48;;;;;;;17.17;10.70;;;;;;;;;;5016217;28;20236;-58
2022/01/08 09:27:14;;;;;;;20.53;11.57;;;;;;;;;;5020312;28;20339;-57
2022/01/08 09:29:40;;;;;;;24.87;10.63;;;;;;;;;;5012574;28;20422;-57
2022/01/08 09:32:06;;;;;;;20.53;10.57;;;;;;;;;;5011116;28;20235;-57
2022/01/08 09:34:32;;;;;;;21.80;12.10;;;;;;;;;;5020191;28;20232;-57
2022/01/08 09:36:58;;;;;;;18.33;10.43;;;;;;;;;;5006681;28;20243;-57
2022/01/08 09:39:24;;;;;;;17.83;10.60;;;;;;;;;;5024023;28;20837;-57
2022/01/08 09:41:50;;;;;;;16.37;10.90;;;;;;;;;;5005860;28;20328;-57
2022/01/08 09:44:16;;;;;;;20.97;10.73;;;;;;;;;;5008616;28;20247;-57
2022/01/08 09:46:43;;;;;;;16.87;10.27;;;;;;;;;;5010608;28;20776;-57
2022/01/08 09:49:09;;;;;;;16.67;10.27;;;;;;;;;;5015449;28;20239;-57
2022/01/08 09:51:35;;;;;;;18.83;10.33;;;;;;;;;;5021690;28;20742;-57
2022/01/08 09:54:02;;;;;;;17.77;10.33;;;;;;;;;;5016328;28;20250;-57
2022/01/08 09:56:31;;;;;;;16.00;10.20;;;;;;;;;;5003276;28;20351;-57
2022/01/08 09:58:57;;;;;;;15.53;10.07;;;;;;;;;;5002599;28;20235;-57
2022/01/08 10:01:30;;;;;;;15.77;9.83;;;;;;;;;;5016134;28;20366;-57
2022/01/08 10:03:58;;;;;;;16.50;9.23;;;;;;;;;;5008761;28;20385;-57
2022/01/08 10:06:25;;;;;;;15.10;8.77;;;;;;;;;;5014811;28;20989;-57
2022/01/08 10:08:51;;;;;;;15.20;8.90;;;;;;;;;;5009301;28;20236;-57
2022/01/08 10:11:17;;;;;;;14.50;8.83;;;;;;;;;;4992450;28;20240;-56
2022/01/08 10:13:43;;;;;;;13.90;7.90;;;;;;;;;;5005550;28;20614;-56
2022/01/08 10:18:57;;;;;;;16.93;8.07;;;;;;;;;;5005405;28;20264;-57
2022/01/08 10:21:27;;;;;;;12.60;8.70;;;;;;;;;;5003987;28;20240;-57
2022/01/08 10:23:55;;;;;;;13.70;8.63;;;;;;;;;;5005856;28;20239;-57
2022/01/08 10:26:21;;;;;;;12.77;7.90;;;;;;;;;;5004283;28;20255;-57
2022/01/08 10:28:51;;;;;;;11.70;8.00;;;;;;;;;;5008193;28;20243;-57
2022/01/08 10:31:17;;;;;;;14.23;7.97;;;;;;;;;;5016145;28;20764;-57
2022/01/08 10:33:48;;;;;;;13.27;8.20;;;;;;;;;;5002302;28;20799;-56
2022/01/08 10:36:14;;;;;;;14.93;7.80;;;;;;;;;;4996682;28;20265;-57
2022/01/08 10:38:40;;;;;;;14.60;8.03;;;;;;;;;;4997835;28;20240;-57
2022/01/08 10:41:12;;;;;;;13.63;7.60;;;;;;;;;;5003105;28;21004;-57
2022/01/08 10:43:38;;;;;;;14.47;7.57;;;;;;;;;;5011911;28;20742;-56
2022/01/08 10:46:11;;;;;;;13.73;8.33;;;;;;;;;;5012029;28;20228;-56
2022/01/08 10:48:37;;;;;;;13.70;6.90;;;;;;;;;;5012317;28;20232;-56
2022/01/08 10:51:18;;;;;;;14.10;6.67;;;;;;;;;;5015841;28;20944;-56
2022/01/08 10:54:10;;;;;;;10.20;6.50;;;;;;;;;;5007411;28;20233;-56
2022/01/08 10:56:37;;;;;;;11.13;6.27;;;;;;;;;;4990333;28;20240;-56
2022/01/08 10:59:03;;;;;;;8.97;6.30;;;;;;;;;;4991603;28;20614;-56
2022/01/08 11:01:49;;;;;;;8.33;5.83;;;;;;;;;;4980784;28;20244;-56
2022/01/08 11:04:15;;;;;;;10.03;5.50;;;;;;;;;;4984442;28;20243;-56
2022/01/08 11:06:51;;;;;;;8.67;5.73;;;;;;;;;;4993215;28;21135;-56
2022/01/08 11:09:17;;;;;;;8.87;5.07;;;;;;;;;;4991407;28;20289;-56
2022/01/08 11:11:44;;;;;;;9.43;5.47;;;;;;;;;;4996401;28;20263;-56
2022/01/08 11:14:09;;;;;;;8.07;5.30;;;;;;;;;;4985300;28;20283;-56
2022/01/08 11:16:35;;;;;;;7.60;4.90;;;;;;;;;;4991901;28;20279;-56
2022/01/08 11:19:04;;;;;;;8.50;4.93;;;;;;;;;;4993253;28;21774;-56
2022/01/08 11:21:31;;;;;;;8.47;4.93;;;;;;;;;;5002514;28;20247;-56
2022/01/08 11:24:00;;;;;;;7.63;4.40;;;;;;;;;;4995581;28;20289;-56
2022/01/08 11:26:26;;;;;;;6.67;3.97;;;;;;;;;;5000076;28;21495;-56
2022/01/08 11:28:53;;;;;;;8.50;3.93;;;;;;;;;;4999608;28;20372;-56
2022/01/08 11:31:19;;;;;;;9.23;4.20;;;;;;;;;;4985392;28;20236;-57
2022/01/08 11:33:49;;;;;;;7.67;4.00;;;;;;;;;;4984127;28;20259;-57
2022/01/08 11:36:15;;;;;;;7.13;3.80;;;;;;;;;;4980900;28;20801;-56
2022/01/08 11:38:44;;;;;;;4.77;3.23;;;;;;;;;;4992325;28;20710;-57
2022/01/08 11:41:10;;;;;;;4.90;3.47;;;;;;;;;;5001991;28;20301;-56
2022/01/08 11:43:36;;;;;;;5.83;3.33;;;;;;;;;;5011251;28;20240;-56
2022/01/08 11:46:09;;;;;;;5.97;3.33;;;;;;;;;;5005171;28;20221;-56
2022/01/08 11:48:36;;;;;;;6.87;3.10;;;;;;;;;;5017650;28;20366;-56
2022/01/08 11:51:03;;;;;;;4.20;3.00;;;;;;;;;;5018625;28;20744;-56
2022/01/08 11:53:32;;;;;;;5.53;3.17;;;;;;;;;;5009562;28;20243;-56
2022/01/08 11:55:59;;;;;;;5.53;3.17;;;;;;;;;;5000037;28;20771;-56
2022/01/08 11:58:30;;;;;;;5.30;3.20;;;;;;;;;;5008268;28;20255;-56
2022/01/08 12:00:57;;;;;;;7.23;3.00;;;;;;;;;;4997050;28;20954;-56
2022/01/08 12:03:34;;;;;;;5.57;3.27;;;;;;;;;;5007956;28;21186;-56
2022/01/08 12:06:08;;;;;;;8.37;3.43;;;;;;;;;;5018092;28;20231;-56
2022/01/08 12:09:07;;;;;;;6.67;3.33;;;;;;;;;;5006679;28;20256;-56
2022/01/08 12:11:34;;;;;;;4.83;3.00;;;;;;;;;;4990147;28;20262;-56
2022/01/08 12:14:10;;;;;;;4.93;2.73;;;;;;;;;;5003936;28;20229;-56
2022/01/08 12:16:37;;;;;;;6.70;3.30;;;;;;;;;;5009933;28;20370;-56
2022/01/08 12:19:03;;;;;;;5.87;2.80;;;;;;;;;;5007191;28;20320;-56
2022/01/08 12:21:30;;;;;;;6.20;3.10;;;;;;;;;;4999549;28;20740;-56
2022/01/08 12:23:59;;;;;;;5.13;2.90;;;;;;;;;;5009132;28;20264;-56
2022/01/08 12:26:25;;;;;;;3.93;2.77;;;;;;;;;;5015470;28;20231;-56
2022/01/08 12:28:53;;;;;;;5.27;3.03;;;;;;;;;;5007533;28;20238;-56
2022/01/08 12:31:23;;;;;;;8.53;3.77;;;;;;;;;;5009064;28;20231;-56
2022/01/08 12:34:08;;;;;;;7.47;4.03;;;;;;;;;;5007660;28;20240;-57
2022/01/08 12:36:34;;;;;;;6.03;3.67;;;;;;;;;;5006665;28;20224;-56
2022/01/08 12:39:01;;;;;;;6.30;3.57;;;;;;;;;;5012448;28;20234;-57
2022/01/08 12:41:27;;;;;;;7.13;3.30;;;;;;;;;;5015667;28;20256;-57
2022/01/08 12:43:53;;;;;;;7.70;3.30;;;;;;;;;;5011364;28;20671;-57
2022/01/08 12:46:22;;;;;;;4.60;2.97;;;;;;;;;;5008321;28;20216;-56
2022/01/08 12:49:04;;;;;;;8.13;3.53;;;;;;;;;;5012103;28;20232;-56
2022/01/08 12:51:48;;;;;;;5.87;3.17;;;;;;;;;;5018179;28;20792;-57
2022/01/08 12:54:16;;;;;;;6.47;3.43;;;;;;;;;;5015938;28;20232;-56
2022/01/08 12:56:54;;;;;;;4.80;3.10;;;;;;;;;;5012011;28;20224;-57
2022/01/08 12:59:21;;;;;;;5.30;3.60;;;;;;;;;;5001464;28;20258;-57
2022/01/08 13:01:47;;;;;;;7.97;3.57;;;;;;;;;;5004348;28;20323;-57
2022/01/08 13:04:16;;;;;;;4.70;3.23;;;;;;;;;;5019272;28;20322;-57
2022/01/08 13:06:42;;;;;;;7.23;3.40;;;;;;;;;;5006807;28;20859;-57
2022/01/08 13:09:08;;;;;;;6.27;3.63;;;;;;;;;;5005557;28;20611;-56
2022/01/08 13:11:35;;;;;;;4.73;3.17;;;;;;;;;;5017712;28;20707;-57
2022/01/08 13:14:01;;;;;;;5.80;3.40;;;;;;;;;;5008103;28;20220;-56
2022/01/08 13:16:31;;;;;;;7.00;3.30;;;;;;;;;;5006510;28;20880;-58
2022/01/08 13:19:01;;;;;;;26.90;4.67;;;;;;;;;;5009556;28;20236;-57
2022/01/08 13:21:31;;;;;;;6.40;4.57;;;;;;;;;;5007839;28;20237;-56
2022/01/08 13:23:57;;;;;;;6.27;3.93;;;;;;;;;;5005391;28;20232;-57
2022/01/08 13:26:27;;;;;;;7.30;3.80;;;;;;;;;;5011853;28;20577;-56
2022/01/08 13:28:53;;;;;;;4.80;3.27;;;;;;;;;;5017142;28;20227;-57
2022/01/08 13:31:19;;;;;;;5.70;3.10;;;;;;;;;;5025609;28;20235;-57
2022/01/08 13:33:54;;;;;;;6.73;3.30;;;;;;;;;;5012779;28;20232;-56
2022/01/08 13:36:21;;;;;;;5.13;3.30;;;;;;;;;;5001162;28;20317;-57
2022/01/08 13:38:47;;;;;;;5.67;3.17;;;;;;;;;;5014189;28;20236;-57
2022/01/08 13:41:16;;;;;;;8.90;3.57;;;;;;;;;;5013561;28;21225;-56
2022/01/08 13:43:55;;;;;;;6.33;2.97;;;;;;;;;;5015236;28;20383;-57
2022/01/08 13:46:21;;;;;;;5.13;3.13;;;;;;;;;;5012300;28;21762;-56
2022/01/08 13:48:47;;;;;;;5.50;2.57;;;;;;;;;;5008589;28;20268;-56
2022/01/08 13:51:13;;;;;;;3.87;2.80;;;;;;;;;;5012369;28;20333;-56
2022/01/08 13:53:39;;;;;;;6.27;2.50;;;;;;;;;;5009760;28;20729;-56
2022/01/08 13:56:05;;;;;;;3.67;2.40;;;;;;;;;;5008350;28;20246;-56
2022/01/08 13:58:31;;;;;;;5.73;2.53;;;;;;;;;;4999031;28;20236;-56
2022/01/08 14:01:05;;;;;;;3.60;2.70;;;;;;;;;;5016693;28;20570;-56
2022/01/08 14:03:52;;;;;;;4.43;2.70;;;;;;;;;;5008874;28;20236;-56
2022/01/08 14:06:24;;;;;;;3.37;2.40;;;;;;;;;;4993342;28;20763;-57
2022/01/08 14:08:58;;;;;;;5.40;2.83;;;;;;;;;;5009909;28;20228;-57
2022/01/08 14:11:24;;;;;;;4.57;2.60;;;;;;;;;;5017359;28;20236;-57
2022/01/08 14:13:55;;;;;;;4.00;2.07;;;;;;;;;;4995289;28;20664;-56
2022/01/08 14:16:34;;;;;;;3.43;2.23;;;;;;;;;;4999437;28;20638;-56
2022/01/08 14:19:07;;;;;;;2.80;2.40;;;;;;;;;;5005281;28;20783;-57
2022/01/08 14:21:33;;;;;;;3.37;2.37;;;;;;;;;;5001037;28;20235;-56
2022/01/08 14:24:12;;;;;;;3.70;2.10;;;;;;;;;;4998001;28;20236;-57
2022/01/08 14:26:38;;;;;;;3.63;2.10;;;;;;;;;;5004722;28;20316;-57
2022/01/08 14:29:09;;;;;;;2.60;2.17;;;;;;;;;;5005248;28;22341;-57
2022/01/08 14:31:36;;;;;;;3.77;2.17;;;;;;;;;;5004107;28;20330;-57
2022/01/08 14:34:06;;;;;;;5.00;2.00;;;;;;;;;;4998834;28;20275;-57
2022/01/08 14:36:39;;;;;;;3.10;2.10;;;;;;;;;;5001974;28;20939;-56
2022/01/08 14:39:05;;;;;;;4.73;2.37;;;;;;;;;;4993995;28;20609;-57
2022/01/08 14:41:32;;;;;;;3.37;2.10;;;;;;;;;;5015437;28;20231;-56
2022/01/08 14:43:59;;;;;;;3.20;2.13;;;;;;;;;;4996825;28;20342;-57
2022/01/08 14:46:25;;;;;;;3.27;2.43;;;;;;;;;;5010345;28;20701;-57
2022/01/08 14:48:50;;;;;;;4.10;2.50;;;;;;;;;;5000729;28;20236;-56
2022/01/08 14:51:17;;;;;;;4.03;2.40;;;;;;;;;;4994011;28;20240;-57
2022/01/08 14:53:43;;;;;;;4.73;2.67;;;;;;;;;;5004252;28;20358;-56
2022/01/08 14:56:09;;;;;;;6.63;2.80;;;;;;;;;;5004837;28;20267;-56